Keytesville, Missouri
Current Conditions -  °F | °C
As of 3:15 PM on Wednesday 26 Nov 2014 (Local Time) from KMHL Reporting Station
Overcast Overcast  
Wind Chill:   Ceiling: 2400
Heat Index:   Visibility: 10mi
Dew Point:   Wind: 18mph
Humidity: 81%   Direction: 290°WNW
Pressure: 29.99"   Gusts: 26mph
Location:  39.43°N, 92.94°W
Report Text: KMHL 262115Z AUTO 29016G23KT 10SM OVC024 05/02 A2999 RMK AO2
Loading
Personal Weather Stations






























Interactive Weather Map New forecast layout! Learn more

10-Day Weather Forecast

Advertisements
Track Severe Weather on mobile